Terminal Aerodrome Forecast
Issued by NWS

Home | Current Version | Previous Version | Graphics & Text | Print | Product List | Glossary Off
Versions: 1 2 3 4 5 6 7 8 9 10 11 12 13 14 15 16 17 18 19 20 21

000
FTUS41 KCLE 032100 AAA
TAFFDY
TAF AMD
KFDY 032100Z 0321/0418 27009KT P6SM SCT045
     FM040100 25005KT P6SM FEW045
     FM041500 26011KT P6SM SCT050=

USA.gov is the U.S. government's official web portal to all federal, state and local government web resources and services.